createdAt,value
2022-11-27T00:00:50.459Z,0.82
2022-11-27T00:03:18.363Z,0.81
2022-11-27T00:05:53.233Z,0.81
2022-11-27T00:08:21.127Z,0.81
2022-11-27T00:10:48.913Z,0.84
2022-11-27T00:13:16.867Z,0.82
2022-11-27T00:15:46.192Z,0.85
2022-11-27T00:18:14.034Z,0.82
2022-11-27T00:20:41.893Z,0.83
2022-11-27T00:23:09.751Z,0.83
2022-11-27T00:25:37.520Z,0.82
2022-11-27T00:28:05.598Z,0.82
2022-11-27T00:30:33.458Z,0.83
2022-11-27T00:33:02.701Z,0.83
2022-11-27T00:35:30.502Z,0.85
2022-11-27T00:37:59.324Z,0.85
2022-11-27T00:40:27.292Z,0.85
2022-11-27T00:42:55.235Z,0.86
2022-11-27T00:45:23.254Z,0.84
2022-11-27T00:47:51.203Z,0.85
2022-11-27T00:50:20.995Z,0.86
2022-11-27T00:52:49.137Z,0.88
2022-11-27T00:55:17.157Z,0.88
2022-11-27T00:57:45.228Z,0.88
2022-11-27T01:00:14.576Z,0.92
2022-11-27T01:02:42.450Z,0.85
2022-11-27T01:05:10.671Z,0.91
2022-11-27T01:07:39.949Z,0.96
2022-11-27T01:10:09.385Z,0.96
2022-11-27T01:12:37.265Z,0.98
2022-11-27T01:15:05.820Z,0.98
2022-11-27T01:17:33.576Z,0.98
2022-11-27T01:20:01.585Z,1.00
2022-11-27T01:22:29.564Z,0.99
2022-11-27T01:24:58.700Z,1.00
2022-11-27T01:27:26.551Z,1.00
2022-11-27T01:29:54.373Z,1.02
2022-11-27T01:32:22.510Z,1.01
2022-11-27T01:34:50.518Z,0.95
2022-11-27T01:37:18.917Z,1.06
2022-11-27T01:39:46.824Z,1.07
2022-11-27T01:42:16.151Z,1.07
2022-11-27T01:44:50.956Z,1.08
2022-11-27T01:47:30.606Z,1.08
2022-11-27T01:50:06.335Z,1.01
2022-11-27T01:52:38.036Z,1.07
2022-11-27T01:55:09.910Z,1.02
2022-11-27T01:57:44.588Z,1.05
2022-11-27T02:00:14.416Z,1.06
2022-11-27T02:02:43.188Z,1.07
2022-11-27T02:05:12.332Z,1.01
2022-11-27T02:07:40.242Z,1.09
2022-11-27T02:10:08.946Z,1.10
2022-11-27T02:12:47.532Z,1.12
2022-11-27T02:15:25.240Z,1.09
2022-11-27T02:17:58.841Z,1.08
2022-11-27T02:20:36.666Z,1.10
2022-11-27T02:23:24.076Z,1.10
2022-11-27T02:26:06.803Z,1.10
2022-11-27T02:28:45.816Z,1.09
2022-11-27T02:31:23.112Z,1.07
2022-11-27T02:33:55.822Z,1.06
2022-11-27T02:36:27.853Z,1.07
2022-11-27T02:39:03.023Z,1.10
2022-11-27T02:41:34.442Z,1.12
2022-11-27T02:44:03.846Z,1.11
2022-11-27T02:46:34.069Z,1.04
2022-11-27T02:49:10.124Z,1.14
2022-11-27T02:51:42.368Z,1.14
2022-11-27T02:54:14.698Z,1.03
2022-11-27T02:56:44.801Z,1.11
2022-11-27T02:59:15.643Z,1.05
2022-11-27T03:01:50.143Z,1.06
2022-11-27T03:04:22.130Z,1.03
2022-11-27T03:06:55.008Z,1.02
2022-11-27T03:09:28.197Z,0.98
2022-11-27T03:11:56.727Z,0.96
2022-11-27T03:14:25.514Z,0.96
2022-11-27T03:17:04.178Z,0.91
2022-11-27T03:19:43.296Z,0.88
2022-11-27T03:22:12.802Z,0.88
2022-11-27T03:24:41.088Z,0.88
2022-11-27T03:27:10.431Z,0.93
2022-11-27T03:29:42.726Z,0.76
2022-11-27T03:32:12.243Z,0.85
2022-11-27T03:34:41.122Z,0.81
2022-11-27T03:37:09.477Z,0.83
2022-11-27T03:39:37.922Z,0.76
2022-11-27T03:42:13.951Z,0.85
2022-11-27T03:44:46.499Z,0.85
2022-11-27T03:47:31.145Z,0.87
2022-11-27T03:50:14.639Z,0.87
2022-11-27T03:52:49.329Z,0.85
2022-11-27T03:55:23.433Z,0.76
2022-11-27T03:57:59.940Z,0.86
2022-11-27T04:00:31.360Z,0.87
2022-11-27T04:03:00.989Z,0.85
2022-11-27T04:05:29.162Z,0.85
2022-11-27T04:07:57.408Z,0.83
2022-11-27T04:10:25.276Z,0.87
2022-11-27T04:12:53.147Z,0.84
2022-11-27T04:15:21.220Z,0.84
2022-11-27T04:17:49.294Z,0.84
2022-11-27T04:20:18.535Z,0.83
2022-11-27T04:22:46.424Z,0.84
2022-11-27T04:25:14.302Z,0.82
2022-11-27T04:27:43.441Z,0.83
2022-11-27T04:30:13.890Z,0.88
2022-11-27T04:32:42.318Z,0.84
2022-11-27T04:35:11.322Z,0.85
2022-11-27T04:37:40.911Z,0.93
2022-11-27T04:40:10.051Z,0.93
2022-11-27T04:42:38.909Z,0.88
2022-11-27T04:45:08.745Z,0.88
2022-11-27T04:47:37.216Z,0.84
2022-11-27T04:50:05.914Z,0.82
2022-11-27T04:52:36.206Z,0.84
2022-11-27T04:55:06.185Z,0.82
2022-11-27T04:57:34.254Z,0.80
2022-11-27T05:00:02.982Z,0.79
2022-11-27T05:02:31.757Z,0.79
2022-11-27T05:04:59.589Z,0.79
2022-11-27T05:07:28.300Z,0.78
2022-11-27T05:09:56.214Z,0.79
2022-11-27T05:12:25.816Z,0.77
2022-11-27T05:14:54.081Z,0.78
2022-11-27T05:17:24.278Z,0.77
2022-11-27T05:19:52.143Z,0.76
2022-11-27T05:22:20.996Z,0.77
2022-11-27T05:24:48.930Z,0.78
2022-11-27T05:27:16.834Z,0.78
2022-11-27T05:29:46.245Z,0.80
2022-11-27T05:32:15.932Z,0.79
2022-11-27T05:34:43.895Z,0.78
2022-11-27T05:37:16.449Z,0.76
2022-11-27T05:39:47.193Z,0.75
2022-11-27T05:42:15.065Z,0.78
2022-11-27T05:44:43.311Z,0.78
2022-11-27T05:47:12.654Z,0.79
2022-11-27T05:49:40.494Z,0.80
2022-11-27T05:52:08.438Z,0.80
2022-11-27T05:54:36.278Z,0.80
2022-11-27T05:57:05.337Z,0.81
2022-11-27T05:59:33.308Z,0.79
2022-11-27T06:02:01.194Z,0.73
2022-11-27T06:04:30.355Z,0.80
2022-11-27T06:06:58.316Z,0.76
2022-11-27T06:09:26.241Z,0.85
2022-11-27T06:11:54.174Z,0.80
2022-11-27T06:14:22.044Z,0.80
2022-11-27T06:16:49.934Z,0.68
2022-11-27T06:19:17.883Z,0.74
2022-11-27T06:21:47.965Z,0.72
2022-11-27T06:24:15.869Z,0.70
2022-11-27T06:26:43.781Z,0.74
2022-11-27T06:29:12.113Z,0.75
2022-11-27T06:31:40.578Z,0.74
2022-11-27T06:34:08.891Z,0.75
2022-11-27T06:36:40.086Z,0.77
2022-11-27T06:39:13.926Z,0.77
2022-11-27T06:41:44.473Z,0.79
2022-11-27T06:44:12.285Z,0.79
2022-11-27T06:46:40.664Z,0.81
2022-11-27T06:49:10.924Z,0.83
2022-11-27T06:51:38.748Z,0.83
2022-11-27T06:54:06.789Z,0.85
2022-11-27T06:56:35.972Z,0.86
2022-11-27T06:59:04.668Z,0.87
2022-11-27T07:01:32.805Z,0.89
2022-11-27T07:04:01.655Z,0.90
2022-11-27T07:06:31.117Z,0.89
2022-11-27T07:08:59.108Z,0.92
2022-11-27T07:11:29.347Z,0.91
2022-11-27T07:14:03.371Z,0.94
2022-11-27T07:16:33.750Z,0.93
2022-11-27T07:19:03.500Z,0.93
2022-11-27T07:21:31.844Z,0.93
2022-11-27T07:24:03.808Z,0.95
2022-11-27T07:26:32.244Z,0.96
2022-11-27T07:29:01.539Z,0.97
2022-11-27T07:31:30.603Z,0.98
2022-11-27T07:33:59.014Z,1.00
2022-11-27T07:36:29.047Z,1.01
2022-11-27T07:38:57.999Z,1.00
2022-11-27T07:41:30.590Z,1.03
2022-11-27T07:44:03.144Z,1.01
2022-11-27T07:46:31.221Z,0.93
2022-11-27T07:49:00.568Z,1.02
2022-11-27T07:51:28.963Z,1.05
2022-11-27T07:53:56.905Z,1.07
2022-11-27T07:56:24.686Z,1.07
2022-11-27T07:58:53.716Z,1.11
2022-11-27T08:01:23.011Z,1.10
2022-11-27T08:03:51.211Z,1.15
2022-11-27T08:06:20.849Z,1.16
2022-11-27T08:08:48.836Z,1.16
2022-11-27T08:11:21.386Z,1.18
2022-11-27T08:13:51.598Z,1.18
2022-11-27T08:16:20.350Z,1.16
2022-11-27T08:18:49.913Z,1.19
2022-11-27T08:21:18.191Z,1.19
2022-11-27T08:23:47.040Z,1.21
2022-11-27T08:26:15.221Z,1.20
2022-11-27T08:28:43.640Z,1.32
2022-11-27T08:31:16.287Z,1.41
2022-11-27T08:33:44.240Z,1.40
2022-11-27T08:36:18.289Z,1.39
2022-11-27T08:38:46.576Z,1.39
2022-11-27T08:41:15.015Z,1.43
2022-11-27T08:43:42.825Z,1.49
2022-11-27T08:46:11.296Z,1.47
2022-11-27T08:48:39.162Z,1.51
2022-11-27T08:51:09.098Z,1.40
2022-11-27T08:53:38.906Z,1.49
2022-11-27T08:56:10.899Z,1.39
2022-11-27T08:58:40.991Z,1.61
2022-11-27T09:01:12.130Z,1.72
2022-11-27T09:03:40.124Z,1.78
2022-11-27T09:06:10.170Z,1.84
2022-11-27T09:08:40.323Z,1.87
2022-11-27T09:11:09.013Z,1.89
2022-11-27T09:13:37.770Z,1.90
2022-11-27T09:16:07.224Z,1.92
2022-11-27T09:18:35.632Z,1.92
2022-11-27T09:21:05.097Z,1.87
2022-11-27T09:23:33.562Z,1.97
2022-11-27T09:26:04.041Z,1.95
2022-11-27T09:28:33.067Z,1.97
2022-11-27T09:31:03.246Z,2.02
2022-11-27T09:33:33.190Z,2.02
2022-11-27T09:36:05.808Z,2.05
2022-11-27T09:38:33.974Z,2.07
2022-11-27T09:41:11.108Z,2.11
2022-11-27T09:43:47.017Z,2.10
2022-11-27T09:46:26.485Z,2.12
2022-11-27T09:48:56.567Z,2.10
2022-11-27T09:51:31.750Z,2.08
2022-11-27T09:54:05.562Z,2.08
2022-11-27T09:56:36.446Z,2.05
2022-11-27T09:59:12.675Z,2.02
2022-11-27T10:01:47.482Z,1.99
2022-11-27T10:04:20.965Z,1.96
2022-11-27T10:07:10.359Z,1.98
2022-11-27T10:09:52.549Z,1.98
2022-11-27T10:12:34.479Z,1.94
2022-11-27T10:15:08.175Z,1.99
2022-11-27T10:17:41.220Z,2.02
2022-11-27T10:20:23.443Z,1.98
2022-11-27T10:23:00.196Z,1.96
2022-11-27T10:25:33.164Z,2.02
2022-11-27T10:28:15.927Z,1.99
2022-11-27T10:30:51.690Z,2.02
2022-11-27T10:33:24.944Z,1.99
2022-11-27T10:35:54.129Z,1.92
2022-11-27T10:38:26.515Z,1.98
2022-11-27T10:41:06.405Z,1.99
2022-11-27T10:43:37.239Z,2.03
2022-11-27T10:46:12.581Z,2.04
2022-11-27T10:48:41.722Z,2.02
2022-11-27T10:51:16.884Z,2.04
2022-11-27T10:53:47.280Z,2.09
2022-11-27T10:56:30.922Z,2.12
2022-11-27T10:59:01.990Z,2.17
2022-11-27T11:01:42.003Z,2.25
2022-11-27T11:04:31.665Z,2.31
2022-11-27T11:07:00.181Z,2.31
2022-11-27T11:09:30.830Z,2.29
2022-11-27T11:12:07.849Z,2.29
2022-11-27T11:14:37.668Z,2.31
2022-11-27T11:17:17.391Z,2.21
2022-11-27T11:19:46.655Z,2.28
2022-11-27T11:22:16.824Z,2.33
2022-11-27T11:24:48.833Z,2.33
2022-11-27T11:27:21.378Z,2.26
2022-11-27T11:29:54.035Z,2.15
2022-11-27T11:32:25.663Z,2.21
2022-11-27T11:35:01.209Z,2.23
2022-11-27T11:37:32.324Z,2.27
2022-11-27T11:40:02.323Z,2.29
2022-11-27T11:42:32.060Z,2.31
2022-11-27T11:45:06.662Z,2.29
2022-11-27T11:47:34.605Z,2.27
2022-11-27T11:50:02.400Z,2.22
2022-11-27T11:52:48.047Z,2.25
2022-11-27T11:55:20.940Z,2.26
2022-11-27T11:58:24.026Z,2.17
2022-11-27T12:01:25.851Z,2.23
2022-11-27T12:04:06.988Z,2.20
2022-11-27T12:06:51.287Z,2.22
2022-11-27T12:09:35.742Z,2.09
2022-11-27T12:12:14.906Z,2.15
2022-11-27T12:14:47.417Z,2.16
2022-11-27T12:17:33.095Z,2.16
2022-11-27T12:20:18.249Z,2.20
2022-11-27T12:23:25.656Z,2.14
2022-11-27T12:26:05.518Z,2.14
2022-11-27T12:29:00.562Z,2.13
2022-11-27T12:31:39.076Z,2.11
2022-11-27T12:34:18.478Z,2.15
2022-11-27T12:37:14.075Z,2.14
2022-11-27T12:39:56.884Z,2.11
2022-11-27T12:42:29.095Z,2.08
2022-11-27T12:45:02.397Z,2.07
2022-11-27T12:47:38.936Z,2.07
2022-11-27T12:50:17.649Z,2.07
2022-11-27T12:52:52.368Z,2.05
2022-11-27T12:55:23.618Z,2.04
2022-11-27T12:57:55.729Z,2.07
2022-11-27T13:00:26.131Z,2.07
2022-11-27T13:03:03.764Z,1.99
2022-11-27T13:05:40.234Z,2.01
2022-11-27T13:08:15.074Z,2.01
2022-11-27T13:10:48.382Z,2.01
2022-11-27T13:13:24.416Z,1.96
2022-11-27T13:15:59.283Z,1.99
2022-11-27T13:18:33.798Z,1.93
2022-11-27T13:21:06.883Z,1.90
2022-11-27T13:23:36.232Z,1.90
2022-11-27T13:26:07.429Z,1.81
2022-11-27T13:28:41.189Z,1.75
2022-11-27T13:31:19.830Z,1.70
2022-11-27T13:33:48.994Z,1.69
2022-11-27T13:36:24.495Z,1.69
2022-11-27T13:38:58.813Z,1.68
2022-11-27T13:41:33.585Z,1.66
2022-11-27T13:44:02.764Z,1.64
2022-11-27T13:46:33.487Z,1.51
2022-11-27T13:49:03.848Z,1.62
2022-11-27T13:51:35.903Z,1.59
2022-11-27T13:54:12.016Z,1.55
2022-11-27T13:56:40.982Z,1.50
2022-11-27T13:59:19.953Z,1.46
2022-11-27T14:01:59.173Z,1.42
2022-11-27T14:04:27.381Z,1.42
2022-11-27T14:07:03.198Z,1.37
2022-11-27T14:09:38.140Z,1.35
2022-11-27T14:12:17.460Z,1.33
2022-11-27T14:14:46.478Z,1.31
2022-11-27T14:17:27.433Z,1.28
2022-11-27T14:20:06.832Z,1.24
2022-11-27T14:23:09.898Z,1.23
2022-11-27T14:25:36.519Z,1.15
2022-11-27T14:28:15.546Z,1.24
2022-11-27T14:30:48.098Z,1.24
2022-11-27T14:33:21.097Z,1.23
2022-11-27T14:35:50.829Z,1.24
2022-11-27T14:38:20.495Z,1.18
2022-11-27T14:40:48.776Z,1.25
2022-11-27T14:43:18.782Z,1.26
2022-11-27T14:45:49.639Z,1.26
2022-11-27T14:48:22.219Z,1.27
2022-11-27T14:50:52.125Z,1.27
2022-11-27T14:53:23.772Z,1.26
2022-11-27T14:55:55.976Z,1.25
2022-11-27T14:58:27.712Z,1.26
2022-11-27T15:00:58.916Z,1.24
2022-11-27T15:03:27.850Z,1.27
2022-11-27T15:05:58.869Z,1.24
2022-11-27T15:08:29.584Z,1.22
2022-11-27T15:10:59.726Z,1.22
2022-11-27T15:13:29.525Z,1.20
2022-11-27T15:16:02.924Z,1.18
2022-11-27T15:18:33.589Z,1.19
2022-11-27T15:21:03.071Z,1.18
2022-11-27T15:23:35.140Z,1.16
2022-11-27T15:26:15.105Z,1.17
2022-11-27T15:28:54.098Z,1.16
2022-11-27T15:31:28.472Z,1.11
2022-11-27T15:33:58.897Z,1.16
2022-11-27T15:36:27.606Z,1.15
2022-11-27T15:39:16.500Z,1.13
2022-11-27T15:41:52.372Z,1.15
2022-11-27T15:44:22.528Z,1.17
2022-11-27T15:46:51.622Z,1.15
2022-11-27T15:49:20.827Z,1.14
2022-11-27T15:51:48.705Z,1.05
2022-11-27T15:54:19.127Z,1.15
2022-11-27T15:56:48.081Z,1.16
2022-11-27T15:59:18.518Z,1.05
2022-11-27T16:01:46.500Z,1.15
2022-11-27T16:04:14.470Z,1.16
2022-11-27T16:06:42.493Z,1.14
2022-11-27T16:09:10.721Z,1.12
2022-11-27T16:11:40.223Z,1.13
2022-11-27T16:14:08.437Z,1.12
2022-11-27T16:16:36.515Z,1.18
2022-11-27T16:19:06.490Z,1.15
2022-11-27T16:21:36.902Z,1.13
2022-11-27T16:24:07.181Z,1.12
2022-11-27T16:26:36.742Z,1.06
2022-11-27T16:29:06.296Z,1.04
2022-11-27T16:31:36.865Z,0.91
2022-11-27T16:34:06.029Z,1.00
2022-11-27T16:36:37.165Z,1.03
2022-11-27T16:39:05.242Z,1.03
2022-11-27T16:41:33.154Z,1.03
2022-11-27T16:44:01.343Z,1.04
2022-11-27T16:46:31.660Z,1.05
2022-11-27T16:49:01.443Z,1.04
2022-11-27T16:51:32.044Z,1.01
2022-11-27T16:54:01.560Z,1.02
2022-11-27T16:56:31.191Z,1.06
2022-11-27T16:59:03.142Z,1.07
2022-11-27T17:01:36.271Z,1.05
2022-11-27T17:04:07.165Z,1.07
2022-11-27T17:06:35.724Z,1.05
2022-11-27T17:09:07.094Z,1.05
2022-11-27T17:11:38.846Z,0.93
2022-11-27T17:14:08.905Z,1.03
2022-11-27T17:16:41.173Z,1.07
2022-11-27T17:19:12.531Z,1.05
2022-11-27T17:21:40.936Z,1.06
2022-11-27T17:24:15.215Z,1.06
2022-11-27T17:26:44.454Z,1.05
2022-11-27T17:29:12.817Z,1.05
2022-11-27T17:31:43.776Z,1.04
2022-11-27T17:34:14.232Z,1.07
2022-11-27T17:36:45.161Z,1.05
2022-11-27T17:39:15.067Z,1.05
2022-11-27T17:41:45.264Z,1.05
2022-11-27T17:44:13.824Z,1.04
2022-11-27T17:46:49.902Z,1.01
2022-11-27T17:49:19.415Z,1.05
2022-11-27T17:51:49.887Z,1.06
2022-11-27T17:54:18.466Z,0.98
2022-11-27T17:56:51.136Z,1.08
2022-11-27T17:59:19.514Z,1.08
2022-11-27T18:01:51.325Z,1.08
2022-11-27T18:04:19.718Z,1.09
2022-11-27T18:06:47.593Z,1.05
2022-11-27T18:09:15.461Z,1.07
2022-11-27T18:11:43.730Z,1.06
2022-11-27T18:14:13.804Z,1.06
2022-11-27T18:16:42.241Z,1.05
2022-11-27T18:19:12.662Z,1.11
2022-11-27T18:21:41.066Z,1.04
2022-11-27T18:24:26.132Z,1.14
2022-11-27T18:27:10.347Z,1.14
2022-11-27T18:29:41.163Z,1.14
2022-11-27T18:32:09.991Z,1.07
2022-11-27T18:34:39.633Z,1.07
2022-11-27T18:37:07.634Z,1.08
2022-11-27T18:39:36.530Z,0.98
2022-11-27T18:42:05.670Z,0.95
2022-11-27T18:44:37.262Z,1.06
2022-11-27T18:47:11.040Z,1.07
2022-11-27T18:49:42.782Z,1.05
2022-11-27T18:52:12.890Z,1.08
2022-11-27T18:54:40.728Z,1.09
2022-11-27T18:57:10.106Z,1.11
2022-11-27T18:59:38.940Z,1.11
2022-11-27T19:02:07.123Z,1.10
2022-11-27T19:04:37.476Z,1.09
2022-11-27T19:07:07.404Z,1.12
2022-11-27T19:09:35.431Z,1.11
2022-11-27T19:12:03.212Z,1.12
2022-11-27T19:14:31.087Z,1.12
2022-11-27T19:16:59.385Z,1.13
2022-11-27T19:22:17.158Z,1.10
2022-11-27T19:24:45.033Z,1.10
2022-11-27T19:27:12.899Z,1.10
2022-11-27T19:29:43.598Z,1.08
2022-11-27T19:32:11.680Z,1.10
2022-11-27T19:34:40.434Z,1.12
2022-11-27T19:37:08.668Z,1.12
2022-11-27T19:39:37.863Z,1.13
2022-11-27T19:42:06.301Z,1.04
2022-11-27T19:44:34.351Z,1.14
2022-11-27T19:47:02.403Z,1.13
2022-11-27T19:49:30.577Z,1.13
2022-11-27T19:51:58.717Z,1.15
2022-11-27T19:54:26.862Z,1.15
2022-11-27T19:56:56.602Z,1.15
2022-11-27T19:59:26.205Z,1.15
2022-11-27T20:01:54.213Z,1.13
2022-11-27T20:04:22.220Z,1.14
2022-11-27T20:06:52.784Z,1.14
2022-11-27T20:09:20.635Z,1.11
2022-11-27T20:11:48.970Z,1.13
2022-11-27T20:14:19.448Z,1.13
2022-11-27T20:16:47.445Z,1.12
2022-11-27T20:19:16.024Z,1.14
2022-11-27T20:21:43.883Z,1.13
2022-11-27T20:24:12.212Z,1.15
2022-11-27T20:26:42.784Z,1.16
2022-11-27T20:29:11.758Z,1.16
2022-11-27T20:31:45.016Z,1.17
2022-11-27T20:34:19.053Z,1.16
2022-11-27T20:36:47.882Z,1.16
2022-11-27T20:39:20.971Z,1.18
2022-11-27T20:41:50.683Z,1.17
2022-11-27T20:44:18.667Z,1.16
2022-11-27T20:46:48.116Z,1.18
2022-11-27T20:49:16.393Z,1.19
2022-11-27T20:51:44.353Z,1.19
2022-11-27T20:54:12.870Z,1.17
2022-11-27T20:56:43.195Z,1.15
2022-11-27T20:59:12.432Z,1.16
2022-11-27T21:01:42.511Z,1.08
2022-11-27T21:04:19.900Z,1.15
2022-11-27T21:06:48.161Z,1.18
2022-11-27T21:09:16.016Z,1.18
2022-11-27T21:11:44.686Z,1.18
2022-11-27T21:14:15.009Z,1.16
2022-11-27T21:16:46.927Z,1.19
2022-11-27T21:19:20.883Z,1.20
2022-11-27T21:21:49.052Z,1.20
2022-11-27T21:24:17.250Z,1.16
2022-11-27T21:26:45.588Z,1.20
2022-11-27T21:29:13.779Z,1.21
2022-11-27T21:31:47.259Z,1.19
2022-11-27T21:34:16.967Z,1.19
2022-11-27T21:36:45.270Z,1.12
2022-11-27T21:39:20.157Z,1.21
2022-11-27T21:41:49.992Z,1.19
2022-11-27T21:44:18.374Z,1.18
2022-11-27T21:46:47.248Z,1.18
2022-11-27T21:49:20.078Z,1.05
2022-11-27T21:51:52.303Z,1.18
2022-11-27T21:54:20.592Z,1.15
2022-11-27T21:56:51.829Z,1.21
2022-11-27T21:59:20.054Z,1.21
2022-11-27T22:01:48.258Z,1.22
2022-11-27T22:04:17.897Z,1.21
2022-11-27T22:06:46.202Z,1.23
2022-11-27T22:09:16.001Z,1.22
2022-11-27T22:11:46.613Z,1.21
2022-11-27T22:14:16.324Z,1.20
2022-11-27T22:16:46.420Z,1.20
2022-11-27T22:19:15.292Z,1.09
2022-11-27T22:21:45.769Z,1.18
2022-11-27T22:24:19.029Z,1.20
2022-11-27T22:26:48.560Z,1.19
2022-11-27T22:29:16.941Z,1.22
2022-11-27T22:31:45.093Z,1.24
2022-11-27T22:34:13.749Z,1.25
2022-11-27T22:36:41.585Z,1.28
2022-11-27T22:39:11.152Z,1.25
2022-11-27T22:41:40.674Z,1.26
2022-11-27T22:44:09.026Z,1.26
2022-11-27T22:46:37.669Z,1.26
2022-11-27T22:49:07.037Z,1.27
2022-11-27T22:51:36.562Z,1.24
2022-11-27T22:54:06.070Z,1.26
2022-11-27T22:56:36.156Z,1.21
2022-11-27T22:59:30.953Z,1.23
2022-11-27T23:01:54.966Z,1.28
2022-11-27T23:04:23.192Z,1.24
2022-11-27T23:06:51.015Z,1.17
2022-11-27T23:09:19.041Z,1.24
2022-11-27T23:11:49.138Z,1.22
2022-11-27T23:14:17.085Z,1.21
2022-11-27T23:16:45.364Z,1.27
2022-11-27T23:19:13.241Z,1.28
2022-11-27T23:21:41.570Z,1.29
2022-11-27T23:24:13.307Z,1.30
2022-11-27T23:26:41.238Z,1.28
2022-11-27T23:29:10.687Z,1.32
2022-11-27T23:31:39.411Z,1.32
2022-11-27T23:34:09.657Z,1.33
2022-11-27T23:36:38.637Z,1.29
2022-11-27T23:39:08.999Z,1.29
2022-11-27T23:41:36.951Z,1.28
2022-11-27T23:44:04.997Z,1.27
2022-11-27T23:46:34.216Z,1.27
2022-11-27T23:49:02.258Z,1.28
2022-11-27T23:51:32.126Z,1.29
2022-11-27T23:54:01.194Z,1.29
2022-11-27T23:56:31.229Z,1.27
2022-11-27T23:59:00.493Z,1.28
